Terminal Aerodrome Forecast
Issued by NWS

Current Version | Previous Version | Graphics & Text | Print | Product List | Glossary On
Versions: 1 2 3 4 5 6 7 8 9 10 11 12 13 14 15 16 17 18 19
000
FTUS41 KPBZ 051600 AAA
TAFHLG
TAF AMD
KHLG 051600Z 0516/0612 29005KT P6SM FEW008 SCT012 OVC020
     FM051700 33006KT P6SM BKN040
      TEMPO 0520/0522 -SHRA BKN015
     FM052200 36007KT P6SM VCSH OVC035=

USA.gov is the U.S. government's official web portal to all federal, state and local government web resources and services.